Time;durP1;ratioP1;P1;durP2;ratioP2;P2;SDS_P1;SDS_P2;PMS_P1;PMS_P2;Temp;Humidity;BMP_temperature;BMP_pressure;BME280_temperature;BME280_humidity;BME280_pressure;Samples;Min_cycle;Max_cycle;Signal;HPM_P1;HPM_P2
2022/12/21 00:00:20;;;;;;;;;8.00;8.00;;;;;13.59;74.52;101035.00;2424756;28;44676;-94
2022/12/21 00:01:31;;;;;;;;;11.50;11.50;;;;;13.58;74.49;101035.91;2424436;28;46984;-94
2022/12/21 00:02:41;;;;;;;;;5.00;4.00;;;;;13.59;74.22;101042.03;2424218;28;45165;-93
2022/12/21 00:03:54;;;;;;;;;10.00;10.00;;;;;13.59;74.42;101036.75;2434099;28;46576;-95
2022/12/21 00:05:07;;;;;;;;;8.75;7.25;;;;;13.57;74.32;101023.63;2431781;28;45237;-94
2022/12/21 00:06:17;;;;;;;;;12.50;10.50;;;;;13.56;74.30;101031.56;2424756;28;47597;-93
2022/12/21 00:07:27;;;;;;;;;9.75;9.75;;;;;13.56;74.32;101028.94;2433106;28;45514;-93
2022/12/21 00:08:43;;;;;;;;;15.75;10.75;;;;;13.56;74.51;101021.00;2431095;28;47253;-95
2022/12/21 00:09:53;;;;;;;;;9.00;8.00;;;;;13.56;74.33;101028.94;2435253;28;45293;-93
2022/12/21 00:11:05;;;;;;;;;11.25;9.25;;;;;13.55;74.50;101028.09;2431383;28;47523;-94
2022/12/21 00:12:15;;;;;;;;;8.75;8.50;;;;;13.55;74.57;101030.72;2433885;28;45173;-94
2022/12/21 00:13:26;;;;;;;;;8.00;8.00;;;;;13.54;74.34;101031.63;2431687;28;47043;-94
2022/12/21 00:14:36;;;;;;;;;10.00;9.25;;;;;13.54;74.32;101039.56;2424695;28;44766;-94
2022/12/21 00:15:59;;;;;;;;;10.75;10.50;;;;;13.54;74.30;101038.69;2434484;28;45510;-94
2022/12/21 00:17:09;;;;;;;;;10.00;9.00;;;;;13.53;74.40;101031.72;2431114;28;45325;-94
2022/12/21 00:18:19;;;;;;;;;9.75;8.75;;;;;13.54;74.48;101033.41;2434054;28;47250;-94
2022/12/21 00:19:30;;;;;;;;;11.25;10.75;;;;;13.54;74.59;101039.56;2431147;28;45628;-95
2022/12/21 00:20:40;;;;;;;;;10.50;10.50;;;;;13.55;74.32;101035.16;2433780;28;47086;-95
2022/12/21 00:21:50;;;;;;;;;10.25;9.00;;;;;13.55;74.45;101040.44;2438559;28;44758;-94
2022/12/21 00:23:01;;;;;;;;;9.00;8.00;;;;;13.54;74.63;101036.06;2430905;28;46404;-94
2022/12/21 00:24:11;;;;;;;;;9.75;6.75;;;;;13.55;74.52;101043.06;2434017;28;44595;-94
2022/12/21 00:25:21;;;;;;;;;10.00;10.00;;;;;13.54;74.68;101043.97;2440693;28;47051;-95
2022/12/21 00:26:34;;;;;;;;;12.25;9.00;;;;;13.56;74.68;101042.13;2431378;28;45150;-93
2022/12/21 00:27:45;;;;;;;;;9.00;9.00;;;;;13.55;74.64;101037.78;2424794;28;48498;-94
2022/12/21 00:28:56;;;;;;;;;11.50;9.25;;;;;13.56;74.47;101042.13;2424608;28;45242;-93
2022/12/21 00:30:07;;;;;;;;;11.75;10.50;;;;;13.56;74.92;101036.84;2424251;28;47060;-93
2022/12/21 00:31:29;;;;;;;;;10.00;8.25;;;;;13.55;74.30;101040.44;2434246;28;45516;-93
2022/12/21 00:32:39;;;;;;;;;10.50;9.00;;;;;13.56;74.65;101036.84;2430190;28;48139;-93
2022/12/21 00:33:50;;;;;;;;;10.75;10.25;;;;;13.57;74.51;101039.47;2424253;28;45293;-94
2022/12/21 00:35:01;;;;;;;;;9.25;9.00;;;;;13.57;74.54;101038.63;2431472;28;48328;-93
2022/12/21 00:36:13;;;;;;;;;8.25;7.50;;;;;13.57;74.39;101036.84;2424399;28;45237;-94
2022/12/21 00:37:24;;;;;;;;;10.25;8.50;;;;;13.58;74.64;101038.53;2424341;28;46421;-94
2022/12/21 00:38:35;;;;;;;;;10.00;9.00;;;;;13.57;74.62;101034.19;2424105;28;45257;-94
2022/12/21 00:39:45;;;;;;;;;11.50;10.00;;;;;13.59;74.58;101042.03;2424518;28;47307;-93
2022/12/21 00:40:57;;;;;;;;;12.00;12.00;;;;;13.59;74.57;101042.03;2421413;28;44753;-94
2022/12/21 00:42:08;;;;;;;;;7.50;6.50;;;;;13.60;74.54;101041.13;2417507;28;46439;-94
2022/12/21 00:43:18;;;;;;;;;9.25;9.25;;;;;13.61;74.71;101040.19;2424192;28;45461;-93
2022/12/21 00:44:28;;;;;;;;;12.50;10.50;;;;;13.59;74.62;101039.41;2427849;28;46068;-94
2022/12/21 00:45:39;;;;;;;;;11.25;10.75;;;;;13.59;74.48;101037.63;2423683;28;45202;-93
2022/12/21 00:46:49;;;;;;;;;10.00;9.00;;;;;13.61;74.59;101034.91;2430694;28;47466;-94
2022/12/21 00:48:00;;;;;;;;;11.75;10.25;;;;;13.61;74.71;101042.84;2424144;28;45397;-93
2022/12/21 00:49:10;;;;;;;;;10.25;8.25;;;;;13.62;74.78;101044.56;2424208;28;47967;-94
2022/12/21 00:50:21;;;;;;;;;11.00;9.25;;;;;13.62;74.51;101039.28;2424003;28;45332;-92
2022/12/21 00:51:33;;;;;;;;;11.00;11.00;;;;;13.62;74.65;101041.94;2414375;28;48509;-94
2022/12/21 00:52:43;;;;;;;;;12.25;10.00;;;;;13.60;74.66;101039.34;2416538;28;45238;-94
2022/12/21 00:53:55;;;;;;;;;11.25;10.00;;;;;13.62;74.69;101039.28;2425363;28;47359;-94
2022/12/21 00:55:07;;;;;;;;;13.25;9.25;;;;;13.62;74.71;101031.38;2431243;28;45424;-94
2022/12/21 00:56:17;;;;;;;;;9.50;9.00;;;;;13.63;74.74;101037.50;2433609;28;46833;-94
2022/12/21 00:57:28;;;;;;;;;10.75;9.25;;;;;13.62;74.69;101034.00;2431004;28;44661;-94
2022/12/21 00:58:39;;;;;;;;;11.50;11.00;;;;;13.62;74.69;101034.00;2431249;28;47484;-94
2022/12/21 00:59:49;;;;;;;;;9.25;8.50;;;;;13.63;74.82;101043.63;2430991;28;45249;-95
2022/12/21 01:01:05;;;;;;;;;10.00;8.00;;;;;13.64;74.73;101047.13;2423922;28;48081;-93
2022/12/21 01:02:15;;;;;;;;;8.75;8.75;;;;;13.64;74.51;101050.63;2431174;28;45214;-94
2022/12/21 01:03:27;;;;;;;;;9.75;9.50;;;;;13.64;74.76;101047.13;2433537;28;46887;-94
2022/12/21 01:04:37;;;;;;;;;7.75;7.75;;;;;13.63;74.66;101043.63;2431230;28;45332;-94
2022/12/21 01:05:49;;;;;;;;;10.75;10.75;;;;;13.63;74.79;101043.63;2423880;28;47169;-94
2022/12/21 01:06:59;;;;;;;;;9.75;8.00;;;;;13.64;74.77;101045.34;2424103;28;45354;-94
2022/12/21 01:08:09;;;;;;;;;11.50;11.25;;;;;13.65;74.55;101049.72;2424073;28;48056;-95
2022/12/21 01:09:20;;;;;;;;;10.00;7.50;;;;;13.65;74.57;101047.09;2433521;28;45323;-94
2022/12/21 01:10:30;;;;;;;;;11.50;11.50;;;;;13.66;74.50;101053.22;2431136;28;47218;-94
2022/12/21 01:11:40;;;;;;;;;12.75;11.75;;;;;13.65;75.15;101049.72;2416426;28;45254;-94
2022/12/21 01:12:51;;;;;;;;;9.00;8.25;;;;;13.65;74.64;101047.09;2431450;28;48440;-93
2022/12/21 01:14:01;;;;;;;;;11.75;10.25;;;;;13.66;74.92;101055.84;2437888;28;45177;-94
2022/12/21 01:15:11;;;;;;;;;9.00;9.00;;;;;13.66;74.71;101048.78;2433698;28;47181;-94
2022/12/21 01:16:30;;;;;;;;;10.25;7.25;;;;;13.66;74.51;101050.56;2440595;28;45134;-94
2022/12/21 01:17:40;;;;;;;;;8.50;7.50;;;;;13.68;74.92;101046.94;2430820;28;46516;-94
2022/12/21 01:18:51;;;;;;;;;9.50;8.50;;;;;13.69;74.73;101053.97;2433650;28;45341;-94
2022/12/21 01:20:01;;;;;;;;;7.50;7.50;;;;;13.70;74.43;101047.72;2430878;28;48060;-94
2022/12/21 01:21:32;;;;;;;;;8.25;8.25;;;;;13.70;74.57;101041.63;2423762;28;45163;-93
2022/12/21 01:22:42;;;;;;;;;10.50;9.00;;;;;13.70;74.52;101047.72;2435351;28;48197;-94
2022/12/21 01:23:54;;;;;;;;;11.50;9.00;;;;;13.71;74.42;101057.38;2439100;28;45268;-94
2022/12/21 01:25:05;;;;;;;;;10.25;9.25;;;;;13.71;74.25;101051.25;2430638;28;47359;-94
2022/12/21 01:26:17;;;;;;;;;9.00;8.50;;;;;13.71;74.52;101057.38;2423998;28;45221;-94
2022/12/21 01:27:27;;;;;;;;;13.00;10.75;;;;;13.71;74.50;101059.16;2433579;28;47222;-93
2022/12/21 01:28:37;;;;;;;;;8.25;7.50;;;;;13.71;74.60;101061.81;2430652;28;44673;-94
2022/12/21 01:29:48;;;;;;;;;10.25;6.25;;;;;13.72;74.51;101063.53;2433434;28;46981;-93
2022/12/21 01:31:01;;;;;;;;;9.25;7.25;;;;;13.72;74.43;101064.41;2430483;28;46610;-94
2022/12/21 01:32:12;;;;;;;;;8.00;6.50;;;;;13.72;74.71;101060.91;2433949;28;45314;-94
2022/12/21 01:33:23;;;;;;;;;11.00;9.25;;;;;13.72;74.46;101064.41;2431030;28;45254;-94
2022/12/21 01:34:33;;;;;;;;;10.50;9.00;;;;;13.72;74.41;101061.75;2430692;28;47236;-94
2022/12/21 01:35:44;;;;;;;;;9.75;8.75;;;;;13.71;74.45;101061.81;2423720;28;45194;-93
2022/12/21 01:36:55;;;;;;;;;10.25;6.25;;;;;13.71;74.46;101056.53;2423672;28;48101;-93
2022/12/21 01:38:05;;;;;;;;;11.25;10.00;;;;;13.71;74.59;101057.38;2430797;28;45175;-94
2022/12/21 01:39:16;;;;;;;;;8.50;8.50;;;;;13.71;74.73;101056.53;2430473;28;46181;-93
2022/12/21 01:40:29;;;;;;;;;9.25;8.50;;;;;13.71;74.33;101053.88;2423229;28;45453;-93
2022/12/21 01:41:40;;;;;;;;;9.75;8.50;;;;;13.70;74.82;101058.28;2424363;28;47370;-93
2022/12/21 01:42:50;;;;;;;;;7.50;7.00;;;;;13.71;74.30;101059.16;2416847;28;45251;-93
2022/12/21 01:44:02;;;;;;;;;9.75;8.00;;;;;13.70;74.39;101060.94;2414222;28;46871;-93
2022/12/21 01:45:32;;;;;;;;;10.50;8.25;;;;;13.72;74.57;101069.69;2414443;28;45143;-93
2022/12/21 01:46:48;;;;;;;;;9.75;7.75;;;;;13.72;74.55;101071.47;2436173;28;45432;-93
2022/12/21 01:48:06;;;;;;;;;8.25;8.25;;;;;13.73;74.58;101074.03;2441115;28;45323;-93
2022/12/21 01:49:22;;;;;;;;;9.00;8.25;;;;;13.73;74.69;101073.16;2431943;28;48303;-93
2022/12/21 01:50:41;;;;;;;;;4.25;2.00;;;;;13.71;74.63;101073.25;2435612;28;45443;-93
2022/12/21 01:52:18;;;;;;;;;8.50;5.25;;;;;13.71;74.32;101069.72;2423503;28;48500;-93
2022/12/21 01:53:39;;;;;;;;;10.75;8.25;;;;;13.71;74.52;101072.38;2435175;28;44796;-93
2022/12/21 01:55:09;;;;;;;;;10.75;9.00;;;;;13.72;74.50;101077.63;2437828;28;47200;-93
2022/12/21 01:56:27;;;;;;;;;11.25;9.00;;;;;13.72;74.39;101077.63;2418174;28;45411;-93
2022/12/21 01:57:38;;;;;;;;;10.50;10.50;;;;;13.71;74.34;101078.53;2425580;28;47379;-93
2022/12/21 01:58:49;;;;;;;;;10.25;7.25;;;;;13.71;74.43;101077.66;2425415;28;45335;-93
2022/12/21 02:00:05;;;;;;;;;9.75;9.75;;;;;13.71;74.27;101072.38;2432228;28;47223;-94
2022/12/21 02:01:16;;;;;;;;;8.25;8.25;;;;;13.69;74.17;101069.81;2424793;28;45427;-93
2022/12/21 02:02:37;;;;;;;;;11.25;8.25;;;;;13.69;74.29;101075.09;2435400;28;45481;-93
2022/12/21 02:03:53;;;;;;;;;9.00;8.00;;;;;13.69;74.10;101072.44;2432416;28;44714;-93
2022/12/21 02:05:32;;;;;;;;;11.50;7.25;;;;;13.69;74.31;101071.59;2432199;28;47308;-93
2022/12/21 02:06:55;;;;;;;;;9.00;9.00;;;;;13.67;74.48;101076.06;2428984;28;45252;-93
2022/12/21 02:08:05;;;;;;;;;8.00;8.00;;;;;13.67;74.33;101076.06;2424197;28;46458;-94
2022/12/21 02:09:17;;;;;;;;;6.75;6.75;;;;;13.68;74.28;101081.28;2435406;28;45182;-93
2022/12/21 02:10:27;;;;;;;;;5.00;2.25;;;;;13.66;74.29;101077.84;2432376;28;48422;-93
2022/12/21 02:11:38;;;;;;;;;7.75;7.75;;;;;13.67;74.29;101082.22;2418860;28;45270;-94
2022/12/21 02:12:53;;;;;;;;;11.75;7.50;;;;;13.66;74.70;101085.78;2418294;28;47406;-93
2022/12/21 02:14:10;;;;;;;;;9.75;8.00;;;;;13.67;74.26;101081.34;2426017;28;45253;-93
2022/12/21 02:15:32;;;;;;;;;7.00;7.00;;;;;13.65;74.35;101081.44;2426257;28;47175;-93
2022/12/21 02:16:45;;;;;;;;;8.75;7.00;;;;;13.66;74.30;101079.63;2430356;28;45310;-93
2022/12/21 02:18:12;;;;;;;;;9.75;8.00;;;;;13.66;74.27;101076.97;2425500;28;45498;-93
2022/12/21 02:19:44;;;;;;;;;9.25;7.50;;;;;13.64;74.32;101078.81;2437985;28;44619;-93
2022/12/21 02:20:55;;;;;;;;;7.25;7.25;;;;;13.62;74.48;101078.91;2441931;28;48119;-93
2022/12/21 02:22:11;;;;;;;;;7.25;7.25;;;;;13.64;74.51;101087.63;2431391;28;44746;-95
2022/12/21 02:23:58;;;;;;;;;8.00;8.00;;;;;13.61;74.69;101077.16;2426061;28;46185;-93
2022/12/21 02:25:39;;;;;;;;;6.50;5.50;;;;;13.63;74.53;101092.97;2430134;28;45324;-93
2022/12/21 02:27:07;;;;;;;;;7.50;6.75;;;;;13.60;74.66;101083.38;2429255;28;47242;-94
2022/12/21 02:28:48;;;;;;;;;7.00;6.25;;;;;13.60;74.69;101089.53;2427282;28;44777;-94
2022/12/21 02:30:08;;;;;;;;;7.00;7.00;;;;;13.60;74.68;101092.19;2429178;28;47521;-93
2022/12/21 02:31:28;;;;;;;;;6.75;5.25;;;;;13.59;74.47;101098.38;2426538;28;45454;-94
2022/12/21 02:32:48;;;;;;;;;8.00;7.50;;;;;13.57;74.61;101088.78;2426368;28;46983;-93
2022/12/21 02:34:12;;;;;;;;;7.00;5.25;;;;;13.55;74.41;101080.91;2426812;28;44708;-94
2022/12/21 02:35:28;;;;;;;;;6.75;6.50;;;;;13.55;74.43;101088.81;2427001;28;47137;-93
2022/12/21 02:37:12;;;;;;;;;6.00;5.25;;;;;13.55;74.06;101080.03;2438199;28;45276;-94
2022/12/21 02:38:37;;;;;;;;;2.75;2.75;;;;;13.52;74.22;101078.38;2442628;28;45622;-94
2022/12/21 02:39:54;;;;;;;;;7.00;7.00;;;;;13.50;73.63;101085.50;2432255;28;45511;-93
2022/12/21 02:41:26;;;;;;;;;5.25;5.25;;;;;13.50;73.84;101089.00;2431994;28;47309;-94
2022/12/21 02:44:34;;;;;;;;;4.75;2.75;;;;;13.41;73.13;101092.00;2434638;28;45439;-94
2022/12/21 02:46:09;;;;;;;;;3.50;3.00;;;;;13.36;73.29;101084.25;2430625;28;45260;-94
2022/12/21 02:47:32;;;;;;;;;3.00;3.00;;;;;13.33;73.02;101086.19;2419122;28;47168;-94
2022/12/21 02:48:57;;;;;;;;;4.50;3.00;;;;;13.31;73.37;101086.22;2417408;28;45203;-94
2022/12/21 02:50:13;;;;;;;;;1.00;1.00;;;;;13.28;73.08;101092.47;2426233;28;47456;-94
2022/12/21 02:51:34;;;;;;;;;3.00;3.00;;;;;13.25;72.89;101092.63;2432136;28;45265;-94
2022/12/21 02:52:44;;;;;;;;;2.00;2.00;;;;;13.23;73.20;101093.59;2426569;28;47382;-94
2022/12/21 02:53:55;;;;;;;;;5.50;4.00;;;;;13.21;72.93;101093.63;2425275;28;44628;-94
2022/12/21 02:55:10;;;;;;;;;4.75;3.25;;;;;13.18;72.99;101085.84;2435258;28;45264;-94
2022/12/21 02:56:21;;;;;;;;;3.00;2.00;;;;;13.16;73.04;101096.44;2431538;28;44627;-94
2022/12/21 02:57:37;;;;;;;;;3.25;3.25;;;;;13.15;73.06;101094.75;2424871;28;48690;-93
2022/12/21 02:58:48;;;;;;;;;5.25;3.75;;;;;13.13;72.95;101096.59;2435020;28;45277;-93
2022/12/21 03:00:01;;;;;;;;;3.00;3.00;;;;;13.11;72.95;101105.47;2430173;28;47224;-94
2022/12/21 03:01:29;;;;;;;;;3.00;3.00;;;;;13.08;72.70;101100.31;2424455;28;45280;-93
2022/12/21 03:02:48;;;;;;;;;8.25;3.00;;;;;13.05;73.16;101096.00;2427405;28;48548;-93
2022/12/21 03:04:10;;;;;;;;;6.50;3.00;;;;;13.02;72.68;101102.25;2425759;28;45283;-94
2022/12/21 03:05:40;;;;;;;;;3.50;2.25;;;;;12.99;73.03;101106.81;2429849;28;46368;-94
2022/12/21 03:07:05;;;;;;;;;4.75;3.00;;;;;12.97;72.83;101106.84;2419658;28;45551;-94
2022/12/21 03:08:52;;;;;;;;;3.75;3.75;;;;;12.94;72.47;101105.19;2425186;28;46073;-94
2022/12/21 03:10:29;;;;;;;;;3.50;3.50;;;;;12.91;72.78;101109.72;2429951;28;45260;-94
2022/12/21 03:11:53;;;;;;;;;3.50;3.50;;;;;12.88;72.84;101109.81;2438191;28;46613;-93
2022/12/21 03:13:03;;;;;;;;;3.50;3.50;;;;;12.86;72.86;101114.31;2436217;28;44698;-94
2022/12/21 03:14:36;;;;;;;;;4.00;4.00;;;;;12.81;72.57;101104.78;2422480;28;48363;-94
2022/12/21 03:16:10;;;;;;;;;3.75;3.00;;;;;12.81;72.42;101109.19;2422381;28;44789;-93
2022/12/21 03:17:30;;;;;;;;;4.25;3.00;;;;;12.77;72.90;101105.81;2418633;28;47303;-94
2022/12/21 03:19:11;;;;;;;;;2.75;2.75;;;;;12.75;73.16;101123.47;2416873;28;45246;-93
2022/12/21 03:20:28;;;;;;;;;5.00;3.50;;;;;12.73;72.68;101119.16;2419203;28;47542;-94
2022/12/21 03:21:45;;;;;;;;;2.75;2.75;;;;;12.70;72.78;101128.91;2424139;28;44742;-93
2022/12/21 03:23:07;;;;;;;;;6.00;3.00;;;;;12.68;72.91;101128.09;2425629;28;46227;-94
2022/12/21 03:24:28;;;;;;;;;3.50;2.75;;;;;12.66;72.62;101121.16;2426517;28;44777;-94
2022/12/21 03:25:55;;;;;;;;;2.75;2.75;;;;;12.64;72.96;101123.88;2431476;28;47426;-93
2022/12/21 03:27:29;;;;;;;;;2.25;2.25;;;;;12.63;72.93;101116.00;2417563;28;45250;-94
2022/12/21 03:28:43;;;;;;;;;2.00;2.00;;;;;12.63;73.08;101111.59;2418322;28;48118;-93
2022/12/21 03:30:01;;;;;;;;;2.75;1.75;;;;;12.62;73.00;101111.66;2418930;28;44571;-94
2022/12/21 03:31:17;;;;;;;;;2.75;2.75;;;;;12.62;72.82;101112.47;2419988;28;47993;-93
2022/12/21 03:32:55;;;;;;;;;2.50;2.50;;;;;12.60;72.74;101120.47;2425620;28;44687;-93
2022/12/21 03:34:16;;;;;;;;;5.00;3.25;;;;;12.60;72.92;101119.59;2412261;28;46111;-94
2022/12/21 03:35:37;;;;;;;;;2.50;2.50;;;;;12.57;73.10;101110.00;2426298;28;44816;-94
2022/12/21 03:36:58;;;;;;;;;1.00;1.00;;;;;12.55;73.24;101122.41;2433691;28;47246;-94
2022/12/21 03:38:15;;;;;;;;;3.75;2.00;;;;;12.55;73.26;101125.03;2431891;28;45337;-94
2022/12/21 03:39:28;;;;;;;;;5.50;3.25;;;;;12.54;73.16;101125.97;2425567;28;46982;-93
2022/12/21 03:40:42;;;;;;;;;2.75;2.75;;;;;12.54;73.18;101127.75;2425151;28;45312;-93
2022/12/21 03:42:07;;;;;;;;;3.00;2.75;;;;;12.52;72.84;101119.84;2424723;28;48460;-94
2022/12/21 03:43:23;;;;;;;;;2.25;2.25;;;;;12.52;73.31;101122.50;2426625;28;45464;-93
2022/12/21 03:44:43;;;;;;;;;2.50;2.50;;;;;12.51;72.89;101119.91;2425458;28;48114;-94
2022/12/21 03:46:17;;;;;;;;;4.00;3.00;;;;;12.51;73.02;101123.44;2426018;28;45191;-92
2022/12/21 03:48:05;;;;;;;;;5.00;3.25;;;;;12.52;73.29;101124.28;2427649;28;46300;-93
2022/12/21 03:49:27;;;;;;;;;2.00;2.00;;;;;12.50;73.25;101126.97;2422938;28;45190;-94
2022/12/21 03:50:44;;;;;;;;;2.75;2.75;;;;;12.50;73.42;101126.97;2426033;28;48091;-94
2022/12/21 03:51:58;;;;;;;;;2.50;2.50;;;;;12.51;73.18;101133.09;2425621;28;44698;-93
2022/12/21 03:53:41;;;;;;;;;2.50;2.50;;;;;12.51;73.01;101139.25;2425022;28;47325;-94
2022/12/21 03:55:00;;;;;;;;;5.00;2.00;;;;;12.49;73.09;101131.38;2439395;28;45212;-92
2022/12/21 03:56:23;;;;;;;;;3.00;3.00;;;;;12.50;73.11;101132.25;2431328;28;46435;-93
2022/12/21 03:57:35;;;;;;;;;1.50;1.50;;;;;12.50;73.00;101132.25;2426434;28;45236;-93
2022/12/21 03:58:46;;;;;;;;;3.00;3.00;;;;;12.49;73.15;101126.09;2434305;28;48151;-94
2022/12/21 04:00:00;;;;;;;;;1.75;1.75;;;;;12.51;73.07;101126.06;2438454;28;45572;-93
2022/12/21 04:01:40;;;;;;;;;3.00;3.00;;;;;12.50;73.11;101132.25;2434145;28;47085;-94
2022/12/21 04:03:01;;;;;;;;;2.50;2.50;;;;;12.48;73.12;101123.53;2416675;28;45648;-93
2022/12/21 04:04:17;;;;;;;;;3.00;3.00;;;;;12.49;72.84;101120.00;2427011;28;47072;-93
2022/12/21 04:05:41;;;;;;;;;1.00;1.00;;;;;12.49;73.16;101133.16;2431600;28;45190;-94
2022/12/21 04:06:54;;;;;;;;;3.25;2.00;;;;;12.48;73.01;101136.72;2428960;28;46457;-94
2022/12/21 04:08:04;;;;;;;;;1.75;1.75;;;;;12.47;72.83;101125.28;2425850;28;45286;-94
2022/12/21 04:09:15;;;;;;;;;2.75;1.75;;;;;12.46;72.58;101125.38;2424151;28;48191;-94
2022/12/21 04:10:26;;;;;;;;;1.00;1.00;;;;;12.45;72.51;101129.75;2434245;28;45251;-93
2022/12/21 04:13:06;;;;;;;;;1.50;1.50;;;;;12.42;72.49;101132.50;2437376;28;45592;-94
2022/12/21 04:14:16;;;;;;;;;2.25;1.50;;;;;12.42;72.71;101144.84;2441196;28;47038;-94
2022/12/21 04:16:56;;;;;;;;;2.25;1.50;;;;;12.37;72.18;101132.66;2439409;28;45494;-94
2022/12/21 04:18:07;;;;;;;;;2.00;2.00;;;;;12.36;72.33;101135.34;2431120;28;45201;-94
2022/12/21 04:20:46;;;;;;;;;0.75;0.75;;;;;12.33;72.37;101135.47;2437406;28;45150;-94
2022/12/21 04:21:56;;;;;;;;;1.50;1.50;;;;;12.30;72.25;101139.06;2431239;28;46709;-94
2022/12/21 04:29:05;;;;;;;;;0.00;0.00;;;;;12.23;72.23;101151.59;2432246;28;45171;-94
2022/12/21 04:30:16;;;;;;;;;2.25;1.00;;;;;12.22;72.42;101156.91;2439336;28;47907;-94
2022/12/21 04:31:26;;;;;;;;;1.50;1.50;;;;;12.23;72.28;101156.00;2438061;28;45343;-94
2022/12/21 04:32:37;;;;;;;;;0.75;0.75;;;;;12.21;72.34;101158.69;2431680;28;47589;-94
2022/12/21 04:33:47;;;;;;;;;1.50;0.75;;;;;12.20;71.99;101156.94;2431495;28;45288;-94
2022/12/21 04:34:57;;;;;;;;;2.50;2.50;;;;;12.18;72.39;101156.16;2423975;28;48436;-94
2022/12/21 04:37:38;;;;;;;;;2.25;2.25;;;;;12.18;72.41;101152.66;2427460;28;45687;-94
2022/12/21 04:38:49;;;;;;;;;2.25;2.25;;;;;12.16;72.43;101147.44;2440688;28;45254;-94
2022/12/21 04:40:00;;;;;;;;;2.25;2.25;;;;;12.17;72.38;101156.22;2430988;28;48485;-94
2022/12/21 04:41:11;;;;;;;;;6.25;3.00;;;;;12.17;72.47;101157.06;2434052;28;44857;-94
2022/12/21 04:42:21;;;;;;;;;5.50;3.50;;;;;12.17;72.50;101153.56;2431040;28;47904;-94
2022/12/21 04:43:36;;;;;;;;;3.50;3.50;;;;;12.18;72.35;101152.66;2431120;28;45275;-94
2022/12/21 04:44:46;;;;;;;;;2.25;2.25;;;;;12.17;72.32;101156.22;2424964;28;47593;-94
2022/12/21 04:46:04;;;;;;;;;4.00;4.00;;;;;12.15;72.39;101149.19;2423750;28;45166;-94
2022/12/21 04:47:14;;;;;;;;;2.50;2.50;;;;;12.16;72.57;101147.44;2424702;28;46741;-94
2022/12/21 04:48:25;;;;;;;;;3.25;3.25;;;;;12.15;72.22;101149.19;2424062;28;45271;-94
2022/12/21 04:49:35;;;;;;;;;3.75;2.00;;;;;12.16;72.60;101152.69;2423754;28;48058;-93
2022/12/21 04:50:45;;;;;;;;;5.00;2.75;;;;;12.14;72.37;101152.78;2431268;28;45180;-94
2022/12/21 04:51:56;;;;;;;;;4.75;2.50;;;;;12.14;72.66;101146.63;2433900;28;48290;-94
2022/12/21 04:53:06;;;;;;;;;2.25;2.25;;;;;12.14;72.45;101150.13;2431003;28;45541;-94
2022/12/21 04:54:17;;;;;;;;;3.00;3.00;;;;;12.15;72.68;101162.38;2433428;28;47521;-94
2022/12/21 04:55:27;;;;;;;;;2.50;2.50;;;;;12.14;72.63;101160.69;2441036;28;44745;-94
2022/12/21 04:56:37;;;;;;;;;1.50;1.50;;;;;12.14;72.43;101163.31;2424588;28;46720;-94
2022/12/21 04:57:48;;;;;;;;;3.75;3.75;;;;;12.13;72.34;101164.22;2423808;28;44818;-93
2022/12/21 04:58:58;;;;;;;;;2.50;2.50;;;;;12.14;72.55;101167.72;2423835;28;47537;-94
2022/12/21 05:00:09;;;;;;;;;2.00;2.00;;;;;12.13;72.51;101164.22;2421623;28;45384;-94
2022/12/21 05:01:21;;;;;;;;;2.75;2.75;;;;;12.13;72.51;101161.56;2425783;28;47906;-93
2022/12/21 05:02:31;;;;;;;;;2.25;2.25;;;;;12.13;72.36;101166.84;2430054;28;45526;-93
2022/12/21 05:03:43;;;;;;;;;1.75;1.50;;;;;12.12;72.70;101165.06;2423956;28;47783;-94
2022/12/21 05:04:53;;;;;;;;;2.75;1.75;;;;;12.12;72.51;101164.22;2424465;28;45309;-93
2022/12/21 05:06:04;;;;;;;;;5.25;1.75;;;;;12.12;72.45;101167.72;2420042;28;48701;-95
2022/12/21 05:07:14;;;;;;;;;4.00;2.50;;;;;12.09;72.39;101162.56;2421998;28;45233;-93
2022/12/21 05:08:24;;;;;;;;;1.00;1.00;;;;;12.11;72.37;101165.13;2430754;28;47305;-94
2022/12/21 05:09:35;;;;;;;;;1.75;1.50;;;;;12.10;72.33;101166.06;2424277;28;45217;-94
2022/12/21 05:10:47;;;;;;;;;3.50;3.50;;;;;12.10;72.27;101172.16;2424213;28;46915;-94
2022/12/21 05:11:57;;;;;;;;;2.75;1.50;;;;;12.10;72.47;101177.44;2434018;28;45473;-94
2022/12/21 05:13:07;;;;;;;;;3.00;2.50;;;;;12.09;72.43;101175.72;2421725;28;47567;-93
2022/12/21 05:14:18;;;;;;;;;3.25;2.75;;;;;12.08;72.54;101174.00;2421995;28;45313;-94
2022/12/21 05:15:30;;;;;;;;;1.00;1.00;;;;;12.08;72.30;101174.00;2421804;28;48231;-93
2022/12/21 05:16:40;;;;;;;;;1.50;1.50;;;;;12.07;72.49;101171.44;2433761;28;45387;-94
2022/12/21 05:17:51;;;;;;;;;2.50;0.50;;;;;12.07;72.70;101177.56;2425138;28;45432;-94
2022/12/21 05:19:01;;;;;;;;;2.50;2.50;;;;;12.05;72.68;101171.44;2416364;28;44624;-94
2022/12/21 05:20:12;;;;;;;;;4.50;2.50;;;;;12.07;72.58;101185.47;2433380;28;47992;-94
2022/12/21 05:21:22;;;;;;;;;4.25;2.25;;;;;12.07;72.42;101188.09;2439104;28;45252;-93
2022/12/21 05:22:33;;;;;;;;;2.00;2.00;;;;;12.07;72.56;101180.19;2430133;28;46960;-94
2022/12/21 05:23:45;;;;;;;;;4.50;3.00;;;;;12.08;72.30;101176.63;2424014;28;45190;-94
2022/12/21 05:24:55;;;;;;;;;3.00;1.50;;;;;12.08;72.47;101179.28;2424410;28;47352;-94
2022/12/21 05:26:07;;;;;;;;;4.25;3.00;;;;;12.07;72.10;101171.44;2430266;28;45249;-95
2022/12/21 05:27:18;;;;;;;;;1.50;1.50;;;;;12.10;72.38;101177.44;2433738;28;47518;-94
2022/12/21 05:28:28;;;;;;;;;1.75;1.75;;;;;12.10;72.17;101177.44;2438219;28;45254;-94
2022/12/21 05:29:39;;;;;;;;;2.50;2.50;;;;;12.09;72.04;101166.97;2430408;28;48041;-94
2022/12/21 05:30:49;;;;;;;;;2.50;2.50;;;;;12.09;71.98;101167.84;2423939;28;45478;-94
2022/12/21 05:31:59;;;;;;;;;2.50;2.50;;;;;12.09;72.18;101172.22;2423880;28;47868;-94
2022/12/21 05:33:10;;;;;;;;;3.50;2.25;;;;;12.09;71.88;101172.22;2433585;28;45206;-94
2022/12/21 05:34:20;;;;;;;;;2.50;2.25;;;;;12.07;72.04;101174.94;2430436;28;48713;-94
2022/12/21 05:35:31;;;;;;;;;2.25;2.25;;;;;12.07;71.97;101169.66;2434060;28;44674;-94
2022/12/21 05:36:41;;;;;;;;;2.50;2.50;;;;;12.05;71.87;101171.44;2430603;28;47525;-94
2022/12/21 05:37:51;;;;;;;;;3.50;2.50;;;;;12.04;71.74;101181.16;2433289;28;45221;-93
2022/12/21 05:39:02;;;;;;;;;6.50;2.50;;;;;12.02;71.51;101174.22;2430537;28;48426;-93
2022/12/21 05:40:12;;;;;;;;;4.00;4.00;;;;;12.01;71.62;101172.47;2433314;28;45300;-94
2022/12/21 05:41:23;;;;;;;;;5.25;2.75;;;;;12.01;71.56;101169.84;2430290;28;47148;-94
2022/12/21 05:42:33;;;;;;;;;2.50;2.50;;;;;11.99;71.59;101169.03;2424103;28;45220;-94
2022/12/21 05:43:44;;;;;;;;;3.75;2.50;;;;;11.99;71.64;101176.94;2414855;28;47328;-94
2022/12/21 05:44:54;;;;;;;;;5.00;3.25;;;;;11.96;71.43;101175.25;2423908;28;45244;-95
2022/12/21 05:46:08;;;;;;;;;2.00;2.00;;;;;11.93;71.42;101181.47;2423721;28;47159;-94
2022/12/21 05:47:18;;;;;;;;;4.75;2.25;;;;;11.91;71.10;101179.81;2424224;28;45341;-94
2022/12/21 05:48:29;;;;;;;;;3.00;2.25;;;;;11.90;71.73;101186.84;2423018;28;47632;-94
2022/12/21 05:49:39;;;;;;;;;2.75;2.75;;;;;11.87;71.39;101179.06;2420625;28;44841;-94
2022/12/21 05:50:50;;;;;;;;;1.25;1.25;;;;;11.86;71.41;101185.22;2424271;28;46381;-93
2022/12/21 05:52:00;;;;;;;;;3.50;3.00;;;;;11.85;71.18;101186.16;2433622;28;45411;-94
2022/12/21 05:53:10;;;;;;;;;3.00;3.00;;;;;11.83;71.45;101182.69;2424616;28;46737;-94
2022/12/21 05:54:21;;;;;;;;;3.75;2.75;;;;;11.82;71.29;101186.25;2426406;28;45242;-94
2022/12/21 05:55:31;;;;;;;;;2.00;2.00;;;;;11.80;71.51;101190.69;2430493;28;47304;-94
2022/12/21 05:56:42;;;;;;;;;2.75;2.75;;;;;11.78;70.95;101189.84;2433024;28;45269;-94
2022/12/21 05:57:53;;;;;;;;;5.00;5.00;;;;;11.77;71.48;101189.00;2429895;28;47583;-93
2022/12/21 06:01:58;;;;;;;;;3.00;3.00;;;;;11.69;71.33;101183.09;2787421;22;46902;-92
2022/12/21 06:03:09;;;;;;;;;5.00;5.00;;;;;11.68;71.25;101190.13;2416703;28;47607;-92
2022/12/21 06:04:20;;;;;;;;;3.00;2.00;;;;;11.65;71.22;101190.25;2414707;28;45554;-93